createdAt,value
2019-03-05T00:00:32.505Z,99305.20
2019-03-05T00:05:36.544Z,99313.50
2019-03-05T00:10:40.700Z,99315.08
2019-03-05T00:15:44.829Z,99309.80
2019-03-05T00:20:48.913Z,99312.38
2019-03-05T00:25:52.924Z,99309.22
2019-03-05T00:31:07.627Z,99301.41
2019-03-05T00:36:21.924Z,99312.29
2019-03-05T00:42:12.937Z,99304.98
2019-03-05T00:47:52.120Z,99314.16
2019-03-05T00:53:05.094Z,99317.15
2019-03-05T00:58:26.302Z,99313.66
2019-03-05T01:03:58.105Z,99319.56
2019-03-05T01:09:04.176Z,99320.89
2019-03-05T01:14:08.934Z,99317.19
2019-03-05T01:19:13.005Z,99314.41
2019-03-05T01:24:17.047Z,99323.16
2019-03-05T01:29:21.076Z,99323.05
2019-03-05T01:34:25.753Z,99323.88
2019-03-05T01:39:29.782Z,99333.62
2019-03-05T01:44:34.053Z,99335.26
2019-03-05T01:49:38.180Z,99340.63
2019-03-05T01:54:42.585Z,99345.06
2019-03-05T01:59:46.602Z,99351.98
2019-03-05T02:04:50.616Z,99353.98
2019-03-05T02:09:55.153Z,99352.05
2019-03-05T02:14:59.562Z,99346.44
2019-03-05T02:20:04.886Z,99337.00
2019-03-05T02:25:18.280Z,99342.97
2019-03-05T02:30:33.365Z,99341.31
2019-03-05T02:35:58.237Z,99350.25
2019-03-05T02:41:35.707Z,99343.14
2019-03-05T02:47:10.899Z,99339.33
2019-03-05T02:52:40.392Z,99340.83
2019-03-05T02:57:42.684Z,99352.26
2019-03-05T03:02:46.699Z,99348.66
2019-03-05T03:07:51.077Z,99343.91
2019-03-05T03:12:55.260Z,99347.68
2019-03-05T03:17:59.334Z,99351.22
2019-03-05T03:23:03.736Z,99339.10
2019-03-05T03:28:07.744Z,99357.36
2019-03-05T03:33:11.803Z,99354.95
2019-03-05T03:38:15.857Z,99353.10
2019-03-05T03:43:19.955Z,99358.88
2019-03-05T03:48:24.280Z,99357.06
2019-03-05T03:53:28.330Z,99357.59
2019-03-05T03:58:32.777Z,99363.08
2019-03-05T04:03:36.816Z,99372.21
2019-03-05T04:08:40.894Z,99386.27
2019-03-05T04:13:45.234Z,99379.39
2019-03-05T04:18:49.309Z,99392.34
2019-03-05T04:23:53.408Z,99394.97
2019-03-05T04:28:57.456Z,99404.91
2019-03-05T04:34:01.541Z,99397.50
2019-03-05T04:39:08.927Z,99405.74
2019-03-05T04:44:12.957Z,99409.23
2019-03-05T04:49:16.996Z,99416.57
2019-03-05T04:54:21.042Z,99429.89
2019-03-05T04:59:25.070Z,99422.72
2019-03-05T05:04:29.663Z,99428.67
2019-03-05T05:09:33.701Z,99433.12
2019-03-05T05:14:37.794Z,99444.95
2019-03-05T05:19:41.831Z,99446.62
2019-03-05T05:24:45.855Z,99459.27
2019-03-05T05:29:49.865Z,99452.30
2019-03-05T05:34:54.033Z,99460.81
2019-03-05T05:40:23.189Z,99461.67
2019-03-05T05:45:30.157Z,99462.98
2019-03-05T05:50:34.218Z,99464.66
2019-03-05T05:55:38.270Z,99475.31
2019-03-05T06:00:42.569Z,99471.52
2019-03-05T06:05:46.663Z,99474.36
2019-03-05T06:10:52.904Z,99494.16
2019-03-05T06:15:56.796Z,99490.12
2019-03-05T06:21:00.887Z,99499.94
2019-03-05T06:26:07.657Z,99502.94
2019-03-05T06:31:11.103Z,99504.27
2019-03-05T06:36:15.434Z,99507.72
2019-03-05T06:41:19.501Z,99515.50
2019-03-05T06:46:24.579Z,99510.48
2019-03-05T06:51:29.776Z,99520.86
2019-03-05T06:56:34.202Z,99524.11
2019-03-05T07:01:38.650Z,99529.43
2019-03-05T07:06:50.549Z,99533.84
2019-03-05T07:12:05.364Z,99554.23
2019-03-05T07:17:28.318Z,99544.20
2019-03-05T07:23:04.389Z,99555.04
2019-03-05T07:28:08.505Z,99557.04
2019-03-05T07:33:12.837Z,99555.22
2019-03-05T07:38:16.878Z,99565.18
2019-03-05T07:43:20.887Z,99577.09
2019-03-05T07:48:25.069Z,99595.59
2019-03-05T07:53:32.202Z,99595.52
2019-03-05T07:58:36.458Z,99608.91
2019-03-05T08:03:42.199Z,99617.80
2019-03-05T08:09:21.881Z,99620.48
2019-03-05T08:14:52.191Z,99639.22
2019-03-05T08:19:56.278Z,99634.03
2019-03-05T08:25:00.374Z,99640.08
2019-03-05T08:30:13.810Z,99644.82
2019-03-05T08:35:11.228Z,99646.31
2019-03-05T08:40:15.789Z,99662.59
2019-03-05T08:45:28.779Z,99675.89
2019-03-05T08:50:25.532Z,99675.72
2019-03-05T08:55:29.577Z,99674.97
2019-03-05T09:00:33.587Z,99689.09
2019-03-05T09:05:37.648Z,99703.52
2019-03-05T09:10:41.957Z,99705.78
2019-03-05T09:15:46.054Z,99705.14
2019-03-05T09:20:50.297Z,99717.14
2019-03-05T09:25:54.361Z,99729.05
2019-03-05T09:30:58.628Z,99720.70
2019-03-05T09:36:02.928Z,99734.56
2019-03-05T09:41:07.072Z,99732.50
2019-03-05T09:46:11.120Z,99750.81
2019-03-05T09:51:15.283Z,99750.30
2019-03-05T09:56:19.336Z,99756.42
2019-03-05T10:01:23.786Z,99768.44
2019-03-05T10:06:28.111Z,99761.77
2019-03-05T10:11:32.380Z,99763.20
2019-03-05T10:16:37.059Z,99761.41
2019-03-05T10:21:46.151Z,99791.00
2019-03-05T10:26:46.988Z,99774.73
2019-03-05T10:31:51.276Z,99779.11
2019-03-05T10:36:55.608Z,99778.17
2019-03-05T10:41:59.921Z,99762.48
2019-03-05T10:47:03.919Z,99758.34
2019-03-05T10:52:07.955Z,99770.70
2019-03-05T10:57:13.685Z,99766.73
2019-03-05T11:02:18.863Z,99762.91
2019-03-05T11:07:22.887Z,99781.35
2019-03-05T11:12:27.258Z,99775.67
2019-03-05T11:17:33.157Z,99780.56
2019-03-05T11:22:37.866Z,99775.36
2019-03-05T11:27:41.923Z,99767.91
2019-03-05T11:32:46.235Z,99773.83
2019-03-05T11:37:50.365Z,99770.72
2019-03-05T11:42:54.911Z,99776.47
2019-03-05T11:47:59.236Z,99783.52
2019-03-05T11:53:03.359Z,99803.20
2019-03-05T11:58:07.348Z,99804.13
2019-03-05T12:03:11.399Z,99809.92
2019-03-05T12:08:15.445Z,99809.81
2019-03-05T12:13:19.664Z,99792.11
2019-03-05T12:18:25.466Z,99807.09
2019-03-05T12:23:29.674Z,99802.57
2019-03-05T12:28:34.321Z,99809.53
2019-03-05T12:33:38.618Z,99817.11
2019-03-05T12:38:42.764Z,99803.90
2019-03-05T12:43:47.159Z,99803.27
2019-03-05T12:48:51.317Z,99794.20
2019-03-05T12:53:55.400Z,99796.86
2019-03-05T12:59:02.254Z,99795.79
2019-03-05T13:04:06.337Z,99810.32
2019-03-05T13:09:19.108Z,99806.83
2019-03-05T13:14:23.721Z,99812.61
2019-03-05T13:19:27.796Z,99822.14
2019-03-05T13:24:31.845Z,99812.75
2019-03-05T13:29:35.965Z,99814.75
2019-03-05T13:34:40.589Z,99814.75
2019-03-05T13:39:44.735Z,99831.39
2019-03-05T13:44:48.912Z,99831.39
2019-03-05T13:50:24.347Z,99846.51
2019-03-05T13:55:56.059Z,99869.40
2019-03-05T14:01:00.255Z,99893.66
2019-03-05T14:07:00.889Z,99873.83
2019-03-05T14:12:05.053Z,99880.72
2019-03-05T14:17:09.137Z,99889.39
2019-03-05T14:22:13.271Z,99894.36
2019-03-05T14:27:17.458Z,99888.44
2019-03-05T14:32:21.521Z,99892.53
2019-03-05T14:37:26.334Z,99890.20
2019-03-05T14:42:30.810Z,99910.20
2019-03-05T14:47:35.148Z,99907.73
2019-03-05T14:52:39.251Z,99926.67
2019-03-05T14:57:43.368Z,99926.67
2019-03-05T15:02:47.461Z,99929.56
2019-03-05T15:07:51.492Z,99934.10
2019-03-05T15:12:56.140Z,99935.25
2019-03-05T15:18:00.288Z,99952.36
2019-03-05T15:23:06.479Z,99970.52
2019-03-05T15:28:11.466Z,99970.37
2019-03-05T15:33:19.586Z,99972.18
2019-03-05T15:38:28.402Z,99978.84
2019-03-05T15:43:35.167Z,99991.20
2019-03-05T15:48:42.952Z,99979.70
2019-03-05T15:53:51.798Z,99983.83
2019-03-05T15:58:56.375Z,99993.15
2019-03-05T16:04:04.333Z,99998.50
2019-03-05T16:09:18.122Z,100000.97
2019-03-05T16:14:29.637Z,100008.77
2019-03-05T16:19:35.705Z,100020.13
2019-03-05T16:24:43.568Z,100032.33
2019-03-05T16:29:52.062Z,100037.81
2019-03-05T16:34:57.568Z,100049.95
2019-03-05T16:40:05.216Z,100138.23
2019-03-05T16:45:11.799Z,100169.18
2019-03-05T16:50:17.925Z,100152.06
2019-03-05T16:55:23.886Z,100120.59
2019-03-05T17:00:28.540Z,100125.06
2019-03-05T17:05:32.862Z,100136.89
2019-03-05T17:10:37.039Z,100144.55
2019-03-05T17:15:41.146Z,100159.78
2019-03-05T17:20:45.248Z,100186.47
2019-03-05T17:25:49.540Z,100199.73
2019-03-05T17:30:53.623Z,100216.34
2019-03-05T17:35:57.710Z,100230.41
2019-03-05T17:41:01.881Z,100229.38
2019-03-05T17:46:06.146Z,100242.16
2019-03-05T17:51:10.397Z,100252.92
2019-03-05T17:56:15.325Z,100263.31
2019-03-05T18:01:19.675Z,100268.77
2019-03-05T18:06:24.145Z,100275.66
2019-03-05T18:11:28.396Z,100285.55
2019-03-05T18:16:32.655Z,100293.48
2019-03-05T18:21:37.382Z,100299.80
2019-03-05T18:26:45.607Z,100311.97
2019-03-05T18:31:53.478Z,100315.80
2019-03-05T18:37:01.561Z,100324.31
2019-03-05T18:42:08.963Z,100334.50
2019-03-05T18:47:21.004Z,100341.05
2019-03-05T18:52:31.427Z,100345.27
2019-03-05T18:57:47.453Z,100348.08
2019-03-05T19:03:05.846Z,100370.02
2019-03-05T19:08:28.222Z,100372.91
2019-03-05T19:13:56.539Z,100372.03
2019-03-05T19:19:16.727Z,100379.56
2019-03-05T19:24:36.077Z,100391.80
2019-03-05T19:29:54.782Z,100400.77
2019-03-05T19:35:14.308Z,100403.18
2019-03-05T19:40:24.265Z,100418.56
2019-03-05T19:45:47.038Z,100425.45
2019-03-05T19:50:53.197Z,100430.14
2019-03-05T19:56:01.830Z,100447.28
2019-03-05T20:01:07.330Z,100457.63
2019-03-05T20:06:23.387Z,100457.42
2019-03-05T20:11:40.167Z,100464.27
2019-03-05T20:17:00.706Z,100469.33
2019-03-05T20:22:21.067Z,100479.58
2019-03-05T20:27:35.538Z,100479.27
2019-03-05T20:32:45.497Z,100494.52
2019-03-05T20:37:54.993Z,100502.73
2019-03-05T20:43:01.632Z,100506.19
2019-03-05T20:48:11.969Z,100512.33
2019-03-05T20:53:18.744Z,100519.70
2019-03-05T20:58:27.222Z,100523.50
2019-03-05T21:03:34.157Z,100538.81
2019-03-05T21:08:39.686Z,100545.20
2019-03-05T21:13:44.548Z,100553.23
2019-03-05T21:18:49.388Z,100551.73
2019-03-05T21:23:53.827Z,100554.84
2019-03-05T21:28:58.236Z,100560.23
2019-03-05T21:34:02.452Z,100571.05
2019-03-05T21:39:12.863Z,100571.91
2019-03-05T21:44:16.937Z,100573.81
2019-03-05T21:49:21.081Z,100583.52
2019-03-05T21:54:25.171Z,100588.20
2019-03-05T21:59:29.281Z,100597.08
2019-03-05T22:04:33.319Z,100599.48
2019-03-05T22:09:37.404Z,100611.23
2019-03-05T22:14:41.709Z,100614.95
2019-03-05T22:19:45.760Z,100612.28
2019-03-05T22:24:50.262Z,100623.56
2019-03-05T22:29:54.309Z,100627.14
2019-03-05T22:34:58.343Z,100631.20
2019-03-05T22:40:02.440Z,100645.22
2019-03-05T22:45:08.374Z,100641.36
2019-03-05T22:50:12.732Z,100657.80
2019-03-05T22:55:17.242Z,100662.37
2019-03-05T23:01:06.943Z,100660.14
2019-03-05T23:06:11.290Z,100668.27
2019-03-05T23:11:15.974Z,100667.21
2019-03-05T23:16:20.330Z,100677.80
2019-03-05T23:21:24.418Z,100680.43
2019-03-05T23:26:28.640Z,100672.18
2019-03-05T23:31:32.732Z,100678.43
2019-03-05T23:36:37.088Z,100690.06
2019-03-05T23:41:41.144Z,100688.95
2019-03-05T23:46:45.428Z,100698.76
2019-03-05T23:51:49.489Z,100706.47
2019-03-05T23:56:53.542Z,100708.11
